Главная страница
METAR-TAF:

METAR-TAF

Аэропорты :

Hagerstown, Мэриленд, США

широта: 39-42-21N, долгота: 077-43-48W, высота над уровнем моря: 214 м

Текущие метеонаблюдения

Эта сводка был подготовлена 56 минут назад, в 19:53 UTC
Ветер 24 Узел от западный с порывами до 30 Узел
Температура 12°C
Влажность 50%
Давление 1006 hPa
Видимость: 16.1 км
Рассеянная облачность на высоте 4000 фута
Сплошная облачность на высоте 4900 фута

METAR: KHGR 171953Z 28024G30KT 10SM BKN040 OVC049 12/02 A2970 RMK AO2 PK WND 30034/1901 SLP068 T01170022

Время: 16:49 (20:49 UTC)


TAF: отсутствует

Метеонаблюдения и прогнозы для более 4000 аэропортов (сводки METAR и TAF).

Имеющиеся станции представлены на карте желтыми и красными точками.

Чтобы увидеть название станции, наведите на нее мышь.

Затем щелкните, чтобы увидеть метеонаблюдения и метеопрогнозы.

Управление картой: чтобы увеличить масштаб, щелкните зеленые кнопки с черным крестиком; чтобы уменьшить масштаб, щелкните зеленую кнопку с тире; для просмотра соседних карт щелкайте зеленые стрелки.


METAR-TAF: